createdAt,value
2023-04-19T00:00:18.344Z,81.72
2023-04-19T00:03:07.969Z,81.82
2023-04-19T00:05:38.413Z,81.92
2023-04-19T00:08:06.540Z,81.72
2023-04-19T00:10:40.090Z,81.62
2023-04-19T00:13:08.235Z,82.07
2023-04-19T00:15:36.405Z,81.58
2023-04-19T00:18:04.557Z,81.30
2023-04-19T00:20:33.127Z,81.52
2023-04-19T00:23:01.197Z,81.18
2023-04-19T00:25:31.216Z,81.18
2023-04-19T00:27:59.262Z,81.43
2023-04-19T00:30:28.308Z,81.32
2023-04-19T00:32:56.349Z,81.45
2023-04-19T00:35:26.047Z,81.03
2023-04-19T00:37:54.259Z,80.92
2023-04-19T00:40:22.302Z,80.94
2023-04-19T00:42:50.478Z,80.92
2023-04-19T00:45:18.605Z,80.62
2023-04-19T00:47:46.575Z,80.70
2023-04-19T00:50:14.856Z,80.67
2023-04-19T00:52:43.148Z,80.30
2023-04-19T00:55:11.148Z,80.46
2023-04-19T00:57:39.235Z,80.41
2023-04-19T01:00:09.896Z,80.67
2023-04-19T01:02:38.263Z,80.44
2023-04-19T01:05:07.217Z,80.71
2023-04-19T01:07:35.440Z,80.65
2023-04-19T01:10:03.977Z,80.45
2023-04-19T01:12:31.971Z,80.63
2023-04-19T01:15:00.081Z,80.40
2023-04-19T01:17:30.299Z,80.43
2023-04-19T01:20:03.457Z,80.22
2023-04-19T01:22:32.144Z,80.27
2023-04-19T01:25:00.804Z,80.58
2023-04-19T01:27:28.721Z,80.14
2023-04-19T01:29:59.096Z,80.22
2023-04-19T01:32:28.287Z,79.97
2023-04-19T01:34:57.634Z,80.19
2023-04-19T01:37:25.614Z,80.27
2023-04-19T01:39:53.837Z,80.34
2023-04-19T01:42:22.014Z,80.25
2023-04-19T01:44:50.006Z,80.24
2023-04-19T01:47:18.180Z,80.20
2023-04-19T01:49:46.432Z,80.17
2023-04-19T01:52:14.402Z,80.25
2023-04-19T01:54:42.576Z,80.02
2023-04-19T01:57:10.648Z,79.88
2023-04-19T01:59:38.723Z,80.03
2023-04-19T02:02:08.392Z,79.71
2023-04-19T02:04:37.513Z,79.99
2023-04-19T02:07:06.822Z,80.20
2023-04-19T02:09:38.931Z,80.05
2023-04-19T02:12:07.135Z,79.85
2023-04-19T02:14:36.161Z,79.84
2023-04-19T02:17:04.759Z,80.15
2023-04-19T02:19:33.534Z,79.89
2023-04-19T02:22:01.468Z,79.49
2023-04-19T02:24:29.675Z,79.30
2023-04-19T02:26:58.307Z,79.90
2023-04-19T02:29:26.285Z,80.01
2023-04-19T02:31:54.292Z,79.99
2023-04-19T02:34:22.322Z,79.86
2023-04-19T02:36:50.541Z,79.73
2023-04-19T02:39:18.724Z,80.11
2023-04-19T02:41:46.829Z,79.63
2023-04-19T02:44:15.268Z,79.81
2023-04-19T02:46:53.480Z,80.00
2023-04-19T02:49:21.731Z,79.82
2023-04-19T02:51:51.764Z,79.86
2023-04-19T02:54:19.867Z,80.18
2023-04-19T02:56:48.120Z,79.98
2023-04-19T02:59:16.913Z,80.40
2023-04-19T03:01:45.873Z,80.16
2023-04-19T03:04:14.800Z,80.16
2023-04-19T03:06:44.440Z,79.84
2023-04-19T03:09:13.102Z,80.13
2023-04-19T03:11:41.157Z,79.86
2023-04-19T03:14:09.226Z,80.19
2023-04-19T03:16:39.194Z,80.11
2023-04-19T03:19:07.417Z,80.31
2023-04-19T03:21:39.704Z,80.38
2023-04-19T03:24:08.180Z,80.38
2023-04-19T03:26:37.012Z,79.98
2023-04-19T03:29:05.267Z,80.29
2023-04-19T03:31:53.568Z,80.10
2023-04-19T03:34:21.641Z,79.89
2023-04-19T03:36:50.001Z,80.09
2023-04-19T03:39:18.094Z,80.10
2023-04-19T03:41:47.805Z,79.94
2023-04-19T03:44:25.098Z,79.97
2023-04-19T03:46:54.182Z,79.88
2023-04-19T03:49:25.361Z,79.64
2023-04-19T03:52:00.138Z,79.60
2023-04-19T03:54:28.438Z,79.61
2023-04-19T03:56:57.321Z,79.74
2023-04-19T03:59:26.013Z,79.49
2023-04-19T04:01:55.079Z,78.88
2023-04-19T04:04:24.223Z,78.94
2023-04-19T04:06:52.720Z,78.83
2023-04-19T04:09:20.902Z,78.88
2023-04-19T04:11:49.101Z,78.91
2023-04-19T04:14:17.562Z,78.38
2023-04-19T04:16:47.007Z,78.44
2023-04-19T04:19:15.805Z,78.45
2023-04-19T04:21:43.833Z,78.27
2023-04-19T04:24:12.582Z,78.13
2023-04-19T04:26:52.210Z,78.19
2023-04-19T04:29:29.713Z,78.29
2023-04-19T04:31:59.481Z,77.93
2023-04-19T04:34:31.682Z,78.09
2023-04-19T04:37:05.909Z,78.06
2023-04-19T04:39:39.353Z,77.83
2023-04-19T04:42:09.148Z,77.99
2023-04-19T04:44:39.104Z,77.71
2023-04-19T04:47:08.141Z,77.93
2023-04-19T04:49:41.635Z,77.79
2023-04-19T04:52:10.110Z,78.05
2023-04-19T04:54:44.833Z,77.88
2023-04-19T04:57:21.406Z,77.88
2023-04-19T04:59:49.786Z,77.74
2023-04-19T05:02:19.280Z,77.88
2023-04-19T05:04:47.491Z,77.79
2023-04-19T05:07:15.745Z,77.80
2023-04-19T05:09:44.033Z,77.65
2023-04-19T05:12:13.182Z,77.91
2023-04-19T05:14:41.796Z,77.97
2023-04-19T05:17:09.766Z,77.86
2023-04-19T05:19:38.074Z,77.83
2023-04-19T05:22:07.734Z,77.77
2023-04-19T05:24:36.113Z,77.89
2023-04-19T05:27:04.095Z,77.50
2023-04-19T05:29:32.682Z,77.75
2023-04-19T05:32:00.870Z,77.80
2023-04-19T05:34:32.208Z,77.89
2023-04-19T05:37:00.997Z,77.57
2023-04-19T05:39:29.246Z,77.94
2023-04-19T05:42:00.385Z,77.54
2023-04-19T05:44:28.608Z,77.64
2023-04-19T05:46:56.750Z,77.36
2023-04-19T05:49:54.328Z,77.43
2023-04-19T05:52:29.670Z,77.02
2023-04-19T05:54:59.989Z,77.09
2023-04-19T05:57:28.107Z,77.10
2023-04-19T05:59:56.647Z,77.02
2023-04-19T06:02:27.002Z,76.62
2023-04-19T06:04:55.619Z,77.00
2023-04-19T06:07:32.020Z,76.70
2023-04-19T06:10:02.348Z,76.48
2023-04-19T06:12:30.383Z,77.04
2023-04-19T06:14:58.400Z,77.19
2023-04-19T06:17:27.175Z,76.90
2023-04-19T06:19:55.402Z,76.75
2023-04-19T06:22:23.431Z,77.01
2023-04-19T06:24:51.377Z,76.21
2023-04-19T06:27:19.403Z,75.22
2023-04-19T06:29:48.059Z,73.98
2023-04-19T06:32:18.019Z,73.26
2023-04-19T06:34:46.236Z,72.35
2023-04-19T06:37:14.793Z,72.45
2023-04-19T06:39:42.971Z,71.84
2023-04-19T06:42:12.600Z,71.97
2023-04-19T06:44:40.673Z,72.20
2023-04-19T06:47:08.641Z,72.48
2023-04-19T06:49:37.020Z,72.67
2023-04-19T06:52:05.100Z,72.96
2023-04-19T06:54:33.034Z,73.19
2023-04-19T06:57:02.465Z,73.24
2023-04-19T06:59:32.684Z,73.17
2023-04-19T07:02:00.885Z,73.17
2023-04-19T07:04:29.045Z,73.11
2023-04-19T07:06:57.295Z,72.99
2023-04-19T07:09:25.279Z,72.93
2023-04-19T07:11:53.265Z,72.68
2023-04-19T07:14:21.424Z,72.58
2023-04-19T07:16:50.984Z,72.29
2023-04-19T07:19:21.257Z,72.28
2023-04-19T07:21:49.306Z,72.20
2023-04-19T07:24:17.994Z,72.19
2023-04-19T07:26:46.321Z,72.08
2023-04-19T07:29:14.314Z,71.63
2023-04-19T07:31:42.489Z,71.17
2023-04-19T07:34:10.904Z,70.85
2023-04-19T07:36:39.287Z,71.16
2023-04-19T07:39:07.290Z,70.37
2023-04-19T07:41:36.298Z,70.28
2023-04-19T07:44:04.727Z,70.46
2023-04-19T07:46:32.889Z,70.70
2023-04-19T07:49:00.974Z,70.43
2023-04-19T07:51:29.426Z,70.21
2023-04-19T07:53:57.398Z,68.88
2023-04-19T07:56:26.543Z,68.11
2023-04-19T07:59:06.819Z,68.15
2023-04-19T08:01:37.520Z,68.68
2023-04-19T08:04:06.188Z,68.77
2023-04-19T08:06:34.713Z,69.00
2023-04-19T08:09:03.365Z,69.25
2023-04-19T08:11:32.067Z,69.28
2023-04-19T08:14:09.261Z,69.17
2023-04-19T08:17:19.139Z,68.39
2023-04-19T08:19:31.426Z,68.09
2023-04-19T08:21:59.766Z,67.53
2023-04-19T08:24:27.849Z,67.11
2023-04-19T08:26:58.215Z,67.14
2023-04-19T08:29:27.570Z,67.41
2023-04-19T08:31:55.819Z,67.57
2023-04-19T08:34:23.841Z,67.67
2023-04-19T08:37:03.250Z,67.60
2023-04-19T08:39:34.389Z,67.16
2023-04-19T08:42:10.904Z,66.76
2023-04-19T08:44:59.008Z,66.04
2023-04-19T08:47:34.926Z,66.13
2023-04-19T08:50:17.266Z,65.25
2023-04-19T08:52:58.694Z,65.39
2023-04-19T08:55:29.905Z,65.69
2023-04-19T08:57:58.895Z,65.89
2023-04-19T09:00:26.866Z,65.59
2023-04-19T09:02:56.087Z,65.37
2023-04-19T09:05:24.563Z,64.69
2023-04-19T09:07:52.620Z,64.60
2023-04-19T09:10:22.016Z,64.45
2023-04-19T09:13:05.550Z,62.99
2023-04-19T09:15:38.789Z,62.56
2023-04-19T09:18:10.021Z,62.22
2023-04-19T09:20:40.202Z,61.77
2023-04-19T09:23:12.805Z,61.26
2023-04-19T09:26:19.414Z,61.17
2023-04-19T09:28:56.081Z,60.50
2023-04-19T09:31:43.384Z,60.37
2023-04-19T09:34:18.045Z,60.69
2023-04-19T09:36:46.851Z,60.71
2023-04-19T09:39:28.559Z,60.64
2023-04-19T09:41:56.798Z,60.49
2023-04-19T09:46:56.124Z,58.79
2023-04-19T09:49:37.454Z,59.30
2023-04-19T09:52:15.089Z,59.56
2023-04-19T09:54:43.371Z,59.73
2023-04-19T09:57:11.707Z,59.46
2023-04-19T09:59:39.967Z,59.13
2023-04-19T10:02:11.484Z,59.06
2023-04-19T10:04:57.399Z,58.93
2023-04-19T10:07:31.346Z,58.96
2023-04-19T10:10:15.933Z,59.26
2023-04-19T10:15:26.834Z,58.88
2023-04-19T10:17:57.689Z,58.73
2023-04-19T10:20:49.938Z,58.43
2023-04-19T10:23:20.470Z,58.05
2023-04-19T10:25:48.921Z,58.35
2023-04-19T10:28:17.505Z,57.86
2023-04-19T10:30:56.355Z,57.63
2023-04-19T10:33:27.204Z,57.13
2023-04-19T10:35:59.770Z,56.83
2023-04-19T10:38:44.759Z,56.52
2023-04-19T10:41:16.417Z,56.24
2023-04-19T10:44:09.549Z,55.62
2023-04-19T10:46:40.719Z,55.41
2023-04-19T10:49:10.317Z,53.87
2023-04-19T10:51:42.573Z,53.50
2023-04-19T10:54:32.779Z,53.54
2023-04-19T10:57:06.080Z,53.02
2023-04-19T10:59:35.455Z,52.87
2023-04-19T11:02:06.122Z,53.53
2023-04-19T11:04:57.414Z,53.21
2023-04-19T11:07:25.592Z,53.31
2023-04-19T11:09:53.586Z,54.41
2023-04-19T11:12:22.008Z,54.65
2023-04-19T11:15:00.039Z,54.51
2023-04-19T11:17:32.411Z,53.50
2023-04-19T11:20:06.629Z,53.21
2023-04-19T11:22:39.301Z,52.58
2023-04-19T11:25:14.341Z,52.82
2023-04-19T11:27:44.477Z,52.27
2023-04-19T11:30:13.159Z,51.45
2023-04-19T11:32:49.626Z,50.96
2023-04-19T11:35:22.798Z,51.63
2023-04-19T11:37:51.452Z,52.33
2023-04-19T11:40:22.181Z,52.84
2023-04-19T11:43:00.863Z,52.72
2023-04-19T11:45:34.410Z,52.24
2023-04-19T11:48:14.359Z,52.35
2023-04-19T11:50:44.644Z,51.96
2023-04-19T11:53:21.925Z,52.07
2023-04-19T11:55:53.150Z,51.69
2023-04-19T11:58:49.597Z,51.99
2023-04-19T12:01:22.636Z,52.12
2023-04-19T12:03:51.710Z,52.88
2023-04-19T12:06:25.998Z,52.69
2023-04-19T12:08:55.914Z,51.75
2023-04-19T12:11:27.009Z,51.70
2023-04-19T12:14:14.573Z,51.76
2023-04-19T12:16:45.071Z,50.60
2023-04-19T12:19:20.619Z,49.85
2023-04-19T12:21:48.935Z,49.17
2023-04-19T12:24:17.485Z,48.84
2023-04-19T12:26:57.066Z,48.64
2023-04-19T12:29:25.392Z,48.45
2023-04-19T12:31:53.440Z,46.75
2023-04-19T12:34:21.463Z,47.11
2023-04-19T12:36:50.266Z,46.98
2023-04-19T12:39:18.583Z,46.77
2023-04-19T12:41:48.806Z,47.35
2023-04-19T12:44:16.932Z,48.14
2023-04-19T12:46:44.929Z,48.01
2023-04-19T12:49:13.641Z,47.53
2023-04-19T12:51:42.848Z,47.49
2023-04-19T12:54:11.179Z,46.77
2023-04-19T12:56:39.137Z,46.52
2023-04-19T12:59:07.403Z,47.25
2023-04-19T13:01:35.797Z,47.39
2023-04-19T13:04:04.064Z,46.16
2023-04-19T13:06:32.295Z,46.77
2023-04-19T13:09:01.546Z,46.45
2023-04-19T13:11:29.915Z,46.03
2023-04-19T13:13:57.983Z,45.84
2023-04-19T13:16:26.278Z,46.19
2023-04-19T13:18:55.354Z,45.43
2023-04-19T13:21:24.127Z,45.34
2023-04-19T13:23:53.277Z,45.74
2023-04-19T13:26:21.440Z,44.61
2023-04-19T13:28:49.810Z,45.00
2023-04-19T13:31:17.778Z,45.48
2023-04-19T13:33:46.466Z,44.88
2023-04-19T13:36:14.723Z,44.45
2023-04-19T13:38:42.739Z,44.54
2023-04-19T13:41:11.797Z,44.94
2023-04-19T13:43:39.968Z,44.59
2023-04-19T13:46:07.946Z,44.48
2023-04-19T13:48:36.013Z,43.77
2023-04-19T13:51:04.537Z,44.48
2023-04-19T13:53:33.196Z,44.73
2023-04-19T13:56:01.190Z,44.84
2023-04-19T13:58:29.449Z,43.86
2023-04-19T14:00:57.548Z,43.56
2023-04-19T14:03:26.783Z,43.81
2023-04-19T14:05:55.390Z,43.62
2023-04-19T14:08:23.451Z,43.37
2023-04-19T14:10:51.498Z,43.68
2023-04-19T14:13:19.701Z,44.01
2023-04-19T14:15:47.980Z,44.50
2023-04-19T14:18:16.194Z,44.32
2023-04-19T14:20:45.044Z,44.62
2023-04-19T14:23:13.003Z,44.67
2023-04-19T14:25:40.908Z,45.39
2023-04-19T14:28:08.888Z,45.69
2023-04-19T14:30:36.934Z,46.36
2023-04-19T14:33:04.965Z,46.66
2023-04-19T14:35:33.167Z,46.74
2023-04-19T14:38:01.342Z,46.67
2023-04-19T14:40:29.817Z,46.79
2023-04-19T14:42:57.895Z,46.29
2023-04-19T14:45:26.677Z,46.32
2023-04-19T14:47:54.740Z,46.43
2023-04-19T14:50:23.125Z,46.34
2023-04-19T14:52:51.297Z,46.68
2023-04-19T14:55:19.477Z,46.42
2023-04-19T14:57:47.497Z,45.82
2023-04-19T15:00:16.346Z,45.31
2023-04-19T15:02:44.462Z,44.50
2023-04-19T15:05:13.052Z,44.74
2023-04-19T15:07:41.671Z,43.88
2023-04-19T15:10:10.373Z,42.67
2023-04-19T15:12:38.435Z,42.86
2023-04-19T15:15:07.421Z,43.07
2023-04-19T15:17:35.792Z,42.91
2023-04-19T15:20:05.785Z,42.32
2023-04-19T15:22:34.093Z,42.61
2023-04-19T15:25:02.372Z,42.85
2023-04-19T15:27:31.479Z,43.99
2023-04-19T15:29:59.644Z,43.96
2023-04-19T15:32:30.638Z,43.41
2023-04-19T15:34:58.656Z,43.33
2023-04-19T15:37:27.572Z,43.94
2023-04-19T15:39:56.443Z,44.83
2023-04-19T15:42:24.958Z,45.26
2023-04-19T15:44:52.991Z,45.46
2023-04-19T15:47:21.007Z,45.54
2023-04-19T15:49:49.234Z,45.86
2023-04-19T15:52:18.865Z,45.72
2023-04-19T15:54:46.857Z,45.77
2023-04-19T15:57:14.841Z,45.65
2023-04-19T15:59:42.782Z,45.01
2023-04-19T16:02:11.209Z,45.05
2023-04-19T16:04:39.337Z,45.28
2023-04-19T16:07:07.378Z,45.54
2023-04-19T16:09:36.061Z,45.81
2023-04-19T16:12:04.071Z,45.81
2023-04-19T16:14:32.204Z,46.36
2023-04-19T16:17:03.454Z,46.81
2023-04-19T16:19:31.333Z,47.46
2023-04-19T16:22:02.324Z,47.87
2023-04-19T16:24:30.398Z,47.84
2023-04-19T16:26:58.502Z,48.13
2023-04-19T16:29:27.088Z,48.64
2023-04-19T16:31:55.054Z,48.90
2023-04-19T16:34:25.501Z,49.28
2023-04-19T16:36:53.587Z,49.48
2023-04-19T16:39:22.017Z,48.71
2023-04-19T16:41:50.310Z,47.69
2023-04-19T16:44:18.279Z,47.90
2023-04-19T16:46:46.200Z,48.15
2023-04-19T16:49:14.605Z,48.48
2023-04-19T16:51:42.661Z,48.61
2023-04-19T16:54:10.688Z,49.04
2023-04-19T16:56:38.577Z,49.51
2023-04-19T16:59:06.659Z,51.19
2023-04-19T17:01:34.628Z,52.31
2023-04-19T17:04:02.747Z,53.14
2023-04-19T17:06:32.049Z,53.95
2023-04-19T17:09:05.024Z,55.21
2023-04-19T17:11:34.447Z,55.51
2023-04-19T17:14:02.514Z,55.45
2023-04-19T17:16:30.605Z,55.50
2023-04-19T17:18:58.542Z,55.34
2023-04-19T17:21:27.750Z,55.15
2023-04-19T17:23:55.828Z,55.53
2023-04-19T17:26:23.775Z,55.91
2023-04-19T17:28:51.761Z,56.43
2023-04-19T17:31:20.098Z,56.45
2023-04-19T17:33:48.520Z,56.94
2023-04-19T17:36:16.590Z,57.05
2023-04-19T17:38:45.094Z,57.54
2023-04-19T17:41:16.311Z,57.57
2023-04-19T17:43:45.717Z,57.65
2023-04-19T17:46:14.910Z,57.91
2023-04-19T17:48:42.951Z,57.96
2023-04-19T17:51:11.161Z,57.69
2023-04-19T17:53:39.234Z,57.57
2023-04-19T17:56:07.306Z,57.19
2023-04-19T17:58:36.654Z,57.44
2023-04-19T18:01:06.571Z,57.66
2023-04-19T18:03:35.022Z,57.77
2023-04-19T18:06:03.227Z,57.81
2023-04-19T18:08:31.301Z,58.13
2023-04-19T18:10:59.363Z,58.38
2023-04-19T18:13:28.428Z,58.62
2023-04-19T18:15:56.412Z,59.01
2023-04-19T18:18:24.317Z,59.31
2023-04-19T18:20:52.924Z,59.74
2023-04-19T18:23:20.884Z,59.76
2023-04-19T18:25:55.842Z,60.20
2023-04-19T18:28:23.863Z,60.26
2023-04-19T18:30:51.945Z,60.52
2023-04-19T18:33:20.134Z,60.93
2023-04-19T18:35:48.124Z,61.10
2023-04-19T18:38:16.295Z,61.40
2023-04-19T18:40:44.684Z,62.11
2023-04-19T18:43:12.749Z,61.93
2023-04-19T18:45:41.087Z,62.24
2023-04-19T18:48:09.497Z,62.48
2023-04-19T18:50:38.357Z,63.17
2023-04-19T18:53:06.772Z,63.45
2023-04-19T18:55:35.056Z,63.84
2023-04-19T18:58:03.122Z,64.06
2023-04-19T19:00:31.514Z,65.08
2023-04-19T19:03:00.951Z,64.92
2023-04-19T19:05:30.516Z,65.09
2023-04-19T19:07:58.801Z,65.55
2023-04-19T19:13:02.307Z,66.21
2023-04-19T19:15:30.386Z,66.63
2023-04-19T19:17:58.421Z,67.01
2023-04-19T19:20:26.580Z,67.15
2023-04-19T19:22:54.834Z,67.69
2023-04-19T19:25:23.380Z,67.86
2023-04-19T19:30:27.726Z,68.27
2023-04-19T19:32:56.324Z,68.63
2023-04-19T19:35:25.140Z,68.85
2023-04-19T19:37:53.368Z,69.07
2023-04-19T19:40:22.920Z,69.31
2023-04-19T19:42:51.162Z,69.58
2023-04-19T19:45:19.648Z,69.51
2023-04-19T19:47:49.597Z,69.73
2023-04-19T19:52:51.529Z,70.07
2023-04-19T19:55:19.515Z,70.05
2023-04-19T19:58:23.959Z,70.25
2023-04-19T20:03:07.020Z,70.67
2023-04-19T20:05:35.794Z,70.60
2023-04-19T20:08:10.291Z,70.73
2023-04-19T20:10:40.669Z,71.03
2023-04-19T20:13:09.502Z,71.13
2023-04-19T20:15:38.271Z,71.51
2023-04-19T20:18:06.660Z,71.66
2023-04-19T20:20:36.055Z,71.54
2023-04-19T20:23:04.750Z,71.82
2023-04-19T20:25:32.935Z,71.90
2023-04-19T20:28:01.494Z,72.07
2023-04-19T20:30:29.518Z,72.18
2023-04-19T20:32:57.611Z,72.28
2023-04-19T20:35:26.301Z,72.57
2023-04-19T20:37:54.811Z,72.78
2023-04-19T20:40:23.693Z,73.05
2023-04-19T20:42:52.173Z,72.90
2023-04-19T20:45:20.310Z,73.17
2023-04-19T20:47:48.863Z,73.18
2023-04-19T20:50:16.929Z,73.36
2023-04-19T20:52:45.335Z,73.69
2023-04-19T20:55:13.777Z,73.87
2023-04-19T20:57:41.758Z,73.91
2023-04-19T21:00:10.984Z,73.91
2023-04-19T21:02:39.108Z,74.08
2023-04-19T21:05:07.894Z,74.04
2023-04-19T21:07:35.962Z,74.02
2023-04-19T21:10:05.432Z,74.45
2023-04-19T21:12:34.790Z,74.42
2023-04-19T21:15:04.914Z,74.58
2023-04-19T21:17:32.945Z,74.60
2023-04-19T21:20:02.647Z,74.73
2023-04-19T21:22:30.850Z,74.84
2023-04-19T21:24:58.782Z,74.81
2023-04-19T21:27:26.996Z,74.90
2023-04-19T21:29:55.596Z,75.03
2023-04-19T21:32:24.172Z,75.07
2023-04-19T21:34:52.314Z,75.02
2023-04-19T21:37:21.427Z,75.21
2023-04-19T21:39:49.605Z,75.41
2023-04-19T21:42:18.665Z,75.08
2023-04-19T21:44:46.811Z,75.03
2023-04-19T21:47:14.954Z,75.20
2023-04-19T21:49:42.877Z,75.19
2023-04-19T21:52:10.998Z,75.31
2023-04-19T21:54:38.924Z,75.19
2023-04-19T21:57:06.940Z,75.59
2023-04-19T21:59:36.222Z,75.51
2023-04-19T22:02:04.410Z,75.54
2023-04-19T22:04:32.778Z,75.61
2023-04-19T22:07:03.812Z,75.56
2023-04-19T22:09:31.906Z,75.40
2023-04-19T22:12:01.129Z,75.71
2023-04-19T22:14:30.916Z,75.90
2023-04-19T22:17:02.922Z,76.21
2023-04-19T22:19:31.662Z,75.98
2023-04-19T22:21:59.821Z,76.10
2023-04-19T22:24:27.899Z,76.04
2023-04-19T22:26:57.606Z,76.16
2023-04-19T22:29:25.591Z,76.23
2023-04-19T22:31:53.810Z,76.28
2023-04-19T22:34:22.229Z,76.40
2023-04-19T22:36:50.400Z,76.39
2023-04-19T22:39:18.652Z,76.21
2023-04-19T22:41:47.146Z,75.97
2023-04-19T22:44:15.315Z,76.08
2023-04-19T22:46:44.118Z,76.17
2023-04-19T22:49:12.301Z,76.45
2023-04-19T22:51:42.441Z,76.31
2023-04-19T22:54:10.698Z,76.20
2023-04-19T22:56:39.595Z,76.72
2023-04-19T22:59:08.576Z,76.91
2023-04-19T23:01:36.883Z,77.13
2023-04-19T23:04:05.226Z,76.91
2023-04-19T23:06:33.302Z,77.48
2023-04-19T23:09:01.690Z,77.06
2023-04-19T23:11:30.057Z,77.40
2023-04-19T23:13:58.456Z,77.25
2023-04-19T23:16:26.737Z,77.54
2023-04-19T23:18:55.118Z,77.33
2023-04-19T23:21:23.171Z,77.47
2023-04-19T23:23:51.216Z,77.39
2023-04-19T23:26:19.314Z,77.39
2023-04-19T23:28:47.294Z,77.44
2023-04-19T23:31:15.347Z,77.82
2023-04-19T23:33:43.418Z,77.63
2023-04-19T23:36:11.415Z,77.42
2023-04-19T23:38:39.765Z,77.61
2023-04-19T23:41:11.058Z,77.62
2023-04-19T23:43:39.290Z,77.86
2023-04-19T23:46:07.493Z,77.71
2023-04-19T23:48:35.760Z,77.54
2023-04-19T23:51:03.730Z,77.64
2023-04-19T23:53:31.900Z,77.65
2023-04-19T23:55:59.841Z,77.17
2023-04-19T23:58:27.929Z,77.34
